Time;durP1;ratioP1;P1;durP2;ratioP2;P2;SDS_P1;SDS_P2;PMS_P1;PMS_P2;Temp;Humidity;BMP_temperature;BMP_pressure;BME280_temperature;BME280_humidity;BME280_pressure;Samples;Min_cycle;Max_cycle;Signal;HPM_P1;HPM_P2
2023/07/17 00:00:13;;;;;;;5.20;4.30;;;;;;;18.33;100.00;96143.75;1039724;28;20491;-74
2023/07/17 00:00:43;;;;;;;6.30;3.70;;;;;;;18.32;100.00;96150.16;1039085;28;20128;-74
2023/07/17 00:01:13;;;;;;;5.72;3.95;;;;;;;18.31;100.00;96143.28;1038199;28;20029;-75
2023/07/17 00:01:44;;;;;;;6.65;4.00;;;;;;;18.29;100.00;96148.88;1047490;28;20028;-74
2023/07/17 00:02:15;;;;;;;4.65;3.80;;;;;;;18.23;100.00;96139.44;1038433;28;20032;-75
2023/07/17 00:02:45;;;;;;;4.75;3.97;;;;;;;18.27;100.00;96147.59;1039392;28;20032;-74
2023/07/17 00:03:16;;;;;;;6.28;4.05;;;;;;;18.29;100.00;96161.38;1038717;28;20025;-74
2023/07/17 00:03:46;;;;;;;4.85;4.15;;;;;;;18.26;100.00;96146.03;1040152;28;20033;-74
2023/07/17 00:04:16;;;;;;;6.45;4.00;;;;;;;18.24;100.00;96153.50;1033569;28;20065;-75
2023/07/17 00:04:47;;;;;;;6.47;4.50;;;;;;;18.29;100.00;96156.06;1037071;28;20045;-75
2023/07/17 00:05:18;;;;;;;5.03;4.28;;;;;;;18.28;100.00;96155.28;1033692;28;20030;-74
2023/07/17 00:05:50;;;;;;;8.88;4.50;;;;;;;18.28;100.00;96155.28;1031493;28;20084;-75
2023/07/17 00:06:20;;;;;;;7.95;4.75;;;;;;;18.29;100.00;96156.06;1029994;28;20117;-75
2023/07/17 00:06:51;;;;;;;6.75;4.20;;;;;;;18.28;100.00;96163.25;1034679;28;20034;-73
2023/07/17 00:07:21;;;;;;;5.03;4.07;;;;;;;18.29;100.00;96164.03;1034723;28;20061;-74
2023/07/17 00:07:52;;;;;;;6.03;3.90;;;;;;;18.30;100.00;96168.25;1028205;28;20045;-73
2023/07/17 00:08:22;;;;;;;7.57;4.20;;;;;;;18.32;100.00;96171.41;1030467;28;20515;-75
2023/07/17 00:08:53;;;;;;;5.15;4.50;;;;;;;18.27;100.00;96169.63;1038015;28;20091;-75
2023/07/17 00:09:23;;;;;;;4.72;4.20;;;;;;;18.32;100.00;96171.41;1030047;28;20031;-73
2023/07/17 00:09:54;;;;;;;6.20;4.38;;;;;;;18.33;100.00;96173.75;1034122;28;20399;-74
2023/07/17 00:10:24;;;;;;;5.53;4.35;;;;;;;18.31;100.00;96175.16;1034440;28;20034;-75
2023/07/17 00:10:56;;;;;;;6.93;4.00;;;;;;;18.29;100.00;96172.00;1030921;28;20022;-75
2023/07/17 00:11:27;;;;;;;5.25;4.32;;;;;;;18.31;100.00;96185.78;1037979;28;20018;-76
2023/07/17 00:11:57;;;;;;;6.10;4.40;;;;;;;18.32;100.00;96171.41;1038686;28;20026;-74
2023/07/17 00:12:28;;;;;;;5.90;4.65;;;;;;;18.33;100.00;96180.94;1042397;28;20017;-74
2023/07/17 00:12:58;;;;;;;6.07;4.35;;;;;;;18.32;100.00;96177.50;1038545;28;20060;-75
2023/07/17 00:13:29;;;;;;;9.57;4.50;;;;;;;18.33;100.00;96183.59;1038482;28;20025;-74
2023/07/17 00:13:59;;;;;;;5.72;4.80;;;;;;;18.35;100.00;96178.78;1038419;28;20029;-75
2023/07/17 00:14:30;;;;;;;6.68;4.68;;;;;;;18.32;100.00;96182.03;1034293;28;20022;-76
2023/07/17 00:15:00;;;;;;;5.25;4.50;;;;;;;18.33;100.00;96186.25;1030249;28;20034;-75
2023/07/17 00:15:31;;;;;;;6.53;4.40;;;;;;;18.27;100.00;96176.81;1030038;28;20026;-75
2023/07/17 00:16:01;;;;;;;5.68;4.50;;;;;;;18.30;100.00;96189.50;1033344;28;20018;-75
2023/07/17 00:16:31;;;;;;;5.55;3.92;;;;;;;18.30;100.00;96190.28;1029979;28;20023;-75
2023/07/17 00:17:02;;;;;;;6.68;4.40;;;;;;;18.29;100.00;96190.59;1034540;28;20018;-74
2023/07/17 00:17:33;;;;;;;7.22;4.50;;;;;;;18.32;100.00;96193.44;1032404;28;20029;-76
2023/07/17 00:18:03;;;;;;;5.90;4.53;;;;;;;18.34;100.00;96190.47;1034502;28;20022;-75
2023/07/17 00:18:34;;;;;;;4.35;3.63;;;;;;;18.32;100.00;96190.00;1034429;28;20633;-74
2023/07/17 00:19:05;;;;;;;6.97;3.88;;;;;;;18.32;100.00;96192.66;1038605;28;20025;-75
2023/07/17 00:19:37;;;;;;;8.55;4.32;;;;;;;18.32;100.00;96197.97;1038490;28;20014;-75
2023/07/17 00:20:11;;;;;;;5.10;4.22;;;;;;;18.32;100.00;96182.03;1028956;28;20523;-75
2023/07/17 00:20:42;;;;;;;5.95;4.40;;;;;;;18.31;100.00;96186.56;1025947;28;20073;-74
2023/07/17 00:21:12;;;;;;;5.60;4.00;;;;;;;18.27;100.00;96168.84;1026404;28;20093;-73
2023/07/17 00:21:42;;;;;;;5.68;4.22;;;;;;;18.33;100.00;96170.31;1034211;28;20014;-76
2023/07/17 00:22:13;;;;;;;7.30;4.40;;;;;;;18.32;100.00;96169.53;1034906;28;20022;-75
2023/07/17 00:22:43;;;;;;;7.05;3.97;;;;;;;18.30;100.00;96155.75;1041000;28;20533;-74
2023/07/17 00:23:14;;;;;;;8.70;4.63;;;;;;;18.33;100.00;96149.06;1038495;28;20566;-74
2023/07/17 00:23:44;;;;;;;4.95;3.72;;;;;;;18.33;100.00;96143.75;1038470;28;20030;-73
2023/07/17 00:24:15;;;;;;;6.57;4.13;;;;;;;18.35;100.00;96139.69;1034297;28;20018;-75
2023/07/17 00:24:45;;;;;;;5.18;3.72;;;;;;;18.34;100.00;96130.16;1034350;28;20014;-76
2023/07/17 00:25:17;;;;;;;4.32;3.72;;;;;;;18.30;100.00;96115.91;1034276;28;20022;-74
2023/07/17 00:25:47;;;;;;;6.88;3.78;;;;;;;18.36;100.00;96111.25;1034547;28;20029;-74
2023/07/17 00:26:18;;;;;;;5.97;4.28;;;;;;;18.37;100.00;96110.16;1034272;28;20030;-75
2023/07/17 00:26:48;;;;;;;4.85;3.88;;;;;;;18.38;100.00;96106.44;1034456;28;20018;-74
2023/07/17 00:27:19;;;;;;;5.43;4.05;;;;;;;18.37;100.00;96105.63;1034425;28;20026;-74
2023/07/17 00:27:50;;;;;;;4.80;3.75;;;;;;;18.36;100.00;96096.09;1030021;28;20513;-74
2023/07/17 00:28:20;;;;;;;6.20;4.20;;;;;;;18.32;100.00;96087.16;1030297;28;20101;-74
2023/07/17 00:28:55;;;;;;;4.90;3.80;;;;;;;18.33;100.00;96087.94;1030244;28;20038;-75
2023/07/17 00:29:28;;;;;;;4.65;4.05;;;;;;;18.35;100.00;96093.75;1030014;28;20058;-75
2023/07/17 00:29:59;;;;;;;4.53;3.88;;;;;;;18.34;100.00;96095.63;1030270;28;20062;-74
2023/07/17 00:30:29;;;;;;;6.43;3.80;;;;;;;18.36;100.00;96092.66;1031298;28;20030;-75
2023/07/17 00:31:00;;;;;;;6.22;4.05;;;;;;;18.37;100.00;96104.84;1031434;28;20554;-74
2023/07/17 00:31:30;;;;;;;6.97;4.38;;;;;;;18.40;100.00;96111.44;1038283;28;20239;-74
2023/07/17 00:32:01;;;;;;;5.15;3.70;;;;;;;18.39;100.00;96110.66;1039270;28;20041;-74
2023/07/17 00:32:31;;;;;;;4.57;3.75;;;;;;;18.32;100.00;96105.75;1034946;28;20031;-75
2023/07/17 00:33:02;;;;;;;6.65;4.10;;;;;;;18.35;100.00;96121.09;1038710;28;20701;-74
2023/07/17 00:33:32;;;;;;;4.82;4.00;;;;;;;18.36;100.00;96127.19;1039154;28;20399;-74
2023/07/17 00:34:02;;;;;;;7.13;4.18;;;;;;;18.29;100.00;96119.66;1031063;28;20170;-74
2023/07/17 00:34:33;;;;;;;11.25;4.70;;;;;;;18.34;100.00;96134.66;1035000;28;20037;-76
2023/07/17 00:35:04;;;;;;;8.45;4.80;;;;;;;18.34;100.00;96134.66;1035061;28;20025;-75
2023/07/17 00:35:35;;;;;;;6.93;4.30;;;;;;;18.33;100.00;96133.13;1039138;28;20036;-75
2023/07/17 00:36:05;;;;;;;6.35;4.53;;;;;;;18.27;100.00;96124.47;1043235;28;20021;-75
2023/07/17 00:36:35;;;;;;;8.75;5.05;;;;;;;18.31;100.00;96135.31;1039097;28;20057;-75
2023/07/17 00:37:06;;;;;;;6.50;5.00;;;;;;;18.26;100.00;96130.88;1035213;28;20499;-74
2023/07/17 00:37:36;;;;;;;6.68;4.78;;;;;;;18.25;100.00;96133.84;1034899;28;20678;-75
2023/07/17 00:38:07;;;;;;;8.73;5.45;;;;;;;18.20;100.00;96126.75;1038977;28;20064;-77
2023/07/17 00:38:37;;;;;;;7.68;5.07;;;;;;;18.25;100.00;96139.94;1039212;28;20467;-75
2023/07/17 00:39:08;;;;;;;6.95;5.35;;;;;;;18.26;100.00;96138.84;1035120;28;20034;-74
2023/07/17 00:39:38;;;;;;;6.60;4.97;;;;;;;18.24;100.00;96137.56;1036741;28;20033;-74
2023/07/17 00:40:09;;;;;;;8.05;4.90;;;;;;;18.21;100.00;96138.16;1026955;28;20058;-74
2023/07/17 00:40:40;;;;;;;10.60;5.53;;;;;;;18.14;100.00;96125.31;1026986;28;20160;-74
2023/07/17 00:41:10;;;;;;;7.05;4.80;;;;;;;18.20;100.00;96134.72;1026204;28;20019;-73
2023/07/17 00:41:41;;;;;;;7.28;5.05;;;;;;;18.18;100.00;96138.78;1031025;28;20026;-72
2023/07/17 00:42:11;;;;;;;6.68;4.85;;;;;;;18.14;100.00;96142.06;1026956;28;20035;-75
2023/07/17 00:42:42;;;;;;;6.57;4.72;;;;;;;18.08;100.00;96129.97;1031111;28;20053;-74
2023/07/17 00:43:12;;;;;;;6.88;4.28;;;;;;;18.16;100.00;96135.66;1030140;28;20026;-74
2023/07/17 00:43:43;;;;;;;6.70;5.75;;;;;;;18.17;100.00;96148.63;1039055;28;20037;-73
2023/07/17 00:44:13;;;;;;;6.35;5.05;;;;;;;18.15;100.00;96145.50;1034926;28;20103;-75
2023/07/17 00:44:43;;;;;;;8.90;5.03;;;;;;;18.14;100.00;96144.72;1035036;28;20463;-75
2023/07/17 00:45:14;;;;;;;14.07;4.68;;;;;;;18.15;100.00;96150.81;1035122;28;20088;-74
2023/07/17 00:45:44;;;;;;;6.47;4.40;;;;;;;18.08;100.00;96139.81;1034914;28;20392;-74
2023/07/17 00:46:15;;;;;;;8.98;4.38;;;;;;;18.13;100.00;96145.00;1031157;28;20030;-75
2023/07/17 00:46:45;;;;;;;11.18;4.57;;;;;;;18.10;100.00;96142.94;1031001;28;20089;-76
2023/07/17 00:47:16;;;;;;;8.38;4.80;;;;;;;18.13;100.00;96147.66;1026858;28;20027;-75
2023/07/17 00:47:46;;;;;;;9.32;4.50;;;;;;;18.12;100.00;96143.44;1030945;28;20034;-73
2023/07/17 00:48:17;;;;;;;5.13;4.45;;;;;;;18.11;100.00;96150.63;1032860;28;20036;-74
2023/07/17 00:48:47;;;;;;;8.30;5.15;;;;;;;18.09;100.00;96147.47;1035138;28;20033;-74
2023/07/17 00:49:18;;;;;;;6.78;4.80;;;;;;;18.12;100.00;96162.03;1026906;28;20055;-76
2023/07/17 00:49:48;;;;;;;8.23;4.30;;;;;;;18.12;100.00;96154.84;1029208;28;20433;-75
2023/07/17 00:50:19;;;;;;;6.22;4.38;;;;;;;18.12;100.00;96160.16;1026958;28;20027;-75
2023/07/17 00:50:51;;;;;;;6.72;4.15;;;;;;;18.08;100.00;96151.22;1027243;28;20384;-77
2023/07/17 00:51:21;;;;;;;7.55;4.55;;;;;;;18.08;100.00;96153.88;1031045;28;20543;-76
2023/07/17 00:51:52;;;;;;;5.63;4.30;;;;;;;18.13;100.00;96155.63;1030832;28;20060;-73
2023/07/17 00:52:22;;;;;;;9.32;4.90;;;;;;;18.08;100.00;96145.13;1031020;28;20022;-74
2023/07/17 00:52:53;;;;;;;8.68;4.63;;;;;;;18.13;100.00;96163.59;1026793;28;20845;-74
2023/07/17 00:53:24;;;;;;;11.80;4.43;;;;;;;18.09;100.00;96149.34;1034122;28;20092;-75
2023/07/17 00:53:54;;;;;;;5.95;4.38;;;;;;;18.13;100.00;96155.63;1034943;28;20030;-74
2023/07/17 00:54:25;;;;;;;7.28;4.57;;;;;;;18.13;100.00;96164.38;1034980;28;20034;-75
2023/07/17 00:54:56;;;;;;;7.88;4.70;;;;;;;18.07;100.00;96152.28;1032700;28;20018;-74
2023/07/17 00:55:26;;;;;;;8.43;5.47;;;;;;;18.07;100.00;96159.47;1037334;28;20116;-74
2023/07/17 00:55:57;;;;;;;5.40;4.35;;;;;;;18.13;100.00;96174.22;1039111;28;20033;-74
2023/07/17 00:56:30;;;;;;;7.65;4.25;;;;;;;18.01;100.00;96150.84;1027491;28;20022;-74
2023/07/17 00:57:01;;;;;;;8.23;4.82;;;;;;;18.11;100.00;96169.22;1031069;28;20555;-74
2023/07/17 00:57:32;;;;;;;5.63;4.38;;;;;;;18.12;100.00;96176.09;1030936;28;20370;-74
2023/07/17 00:58:02;;;;;;;7.47;4.68;;;;;;;18.05;100.00;96165.09;1031047;28;20021;-74
2023/07/17 00:58:33;;;;;;;9.82;3.97;;;;;;;18.13;100.00;96180.31;1031741;28;20613;-75
2023/07/17 00:59:04;;;;;;;6.30;4.07;;;;;;;18.09;100.00;96163.41;1026233;28;20027;-74
2023/07/17 00:59:35;;;;;;;5.97;3.97;;;;;;;18.13;100.00;96175.00;1030065;28;20029;-74
2023/07/17 01:00:08;;;;;;;5.85;4.40;;;;;;;18.13;100.00;96175.00;1037229;28;20036;-73
2023/07/17 01:00:38;;;;;;;9.05;4.03;;;;;;;18.14;100.00;96181.09;1034673;28;20140;-75
2023/07/17 01:01:09;;;;;;;5.78;4.05;;;;;;;18.09;100.00;96163.41;1034364;28;20025;-76
2023/07/17 01:01:40;;;;;;;6.60;4.18;;;;;;;18.12;100.00;96165.47;1033342;28;20058;-76
2023/07/17 01:02:12;;;;;;;16.23;4.85;;;;;;;18.17;100.00;96171.75;1030939;28;20010;-73
2023/07/17 01:02:42;;;;;;;5.43;4.10;;;;;;;18.17;100.00;96164.56;1034948;28;20034;-75
2023/07/17 01:03:14;;;;;;;5.00;4.50;;;;;;;18.17;100.00;96166.44;1034848;28;20052;-74
2023/07/17 01:03:45;;;;;;;9.80;4.53;;;;;;;18.16;100.00;96156.91;1031338;28;20054;-75
2023/07/17 01:04:15;;;;;;;6.38;4.47;;;;;;;18.20;100.00;96165.81;1026959;28;20393;-75
2023/07/17 01:04:47;;;;;;;5.32;3.70;;;;;;;18.20;100.00;96165.81;1026992;28;20031;-76
2023/07/17 01:05:17;;;;;;;5.38;3.95;;;;;;;18.19;100.00;96161.59;1034210;28;20081;-74
2023/07/17 01:05:48;;;;;;;11.00;3.85;;;;;;;18.20;100.00;96157.84;1039340;28;20095;-75
2023/07/17 01:06:18;;;;;;;6.72;4.78;;;;;;;18.21;100.00;96162.06;1039405;28;20033;-75
2023/07/17 01:06:49;;;;;;;8.50;4.25;;;;;;;18.23;100.00;96165.22;1036472;28;20030;-73
2023/07/17 01:07:19;;;;;;;4.90;3.90;;;;;;;18.18;100.00;96166.16;1039099;28;20018;-75
2023/07/17 01:07:50;;;;;;;8.38;3.72;;;;;;;18.23;100.00;96170.53;1034708;28;20030;-76
2023/07/17 01:08:20;;;;;;;8.20;4.18;;;;;;;18.24;100.00;96175.56;1030761;28;20060;-76
2023/07/17 01:08:50;;;;;;;11.90;4.35;;;;;;;18.19;100.00;96159.72;1023507;28;20015;-73
2023/07/17 01:09:21;;;;;;;9.65;4.43;;;;;;;18.21;100.00;96167.38;1034908;28;20018;-73
2023/07/17 01:09:53;;;;;;;6.90;4.15;;;;;;;18.27;100.00;96166.97;1034963;28;20029;-73
2023/07/17 01:10:23;;;;;;;4.10;3.58;;;;;;;18.21;100.00;96160.22;1035458;28;20116;-74
2023/07/17 01:10:53;;;;;;;6.28;4.20;;;;;;;18.26;100.00;96164.63;1035486;28;20553;-75
2023/07/17 01:11:24;;;;;;;5.15;3.88;;;;;;;18.22;100.00;96153.81;1030577;28;20022;-74
2023/07/17 01:11:54;;;;;;;5.53;4.07;;;;;;;18.20;100.00;96148.00;1030816;28;20034;-75
2023/07/17 01:12:25;;;;;;;4.63;3.90;;;;;;;18.28;100.00;96159.81;1028689;28;20019;-74
2023/07/17 01:12:55;;;;;;;20.55;4.75;;;;;;;18.27;100.00;96150.25;1030443;28;20022;-74
2023/07/17 01:13:26;;;;;;;6.97;4.35;;;;;;;18.26;100.00;96146.03;1026828;28;20023;-74
2023/07/17 01:13:56;;;;;;;6.05;4.15;;;;;;;18.25;100.00;96150.56;1030700;28;20022;-76
2023/07/17 01:14:28;;;;;;;5.97;3.90;;;;;;;18.20;100.00;96136.59;1030904;28;20019;-75
2023/07/17 01:14:58;;;;;;;4.57;3.70;;;;;;;18.27;100.00;96142.28;1030702;28;20634;-75
2023/07/17 01:15:29;;;;;;;5.88;4.18;;;;;;;18.28;100.00;96139.34;1031011;28;20018;-74
2023/07/17 01:15:59;;;;;;;5.13;3.50;;;;;;;18.28;100.00;96143.88;1034593;28;20026;-76
2023/07/17 01:16:29;;;;;;;6.07;3.22;;;;;;;18.25;100.00;96141.81;1030892;28;20488;-77
2023/07/17 01:17:00;;;;;;;4.43;3.67;;;;;;;18.21;100.00;96132.84;1034635;28;20416;-75
2023/07/17 01:17:31;;;;;;;4.57;3.65;;;;;;;18.24;100.00;96137.56;1034789;28;20037;-74
2023/07/17 01:18:02;;;;;;;6.75;3.88;;;;;;;18.24;100.00;96137.56;1035114;28;20041;-74
2023/07/17 01:18:32;;;;;;;6.00;4.10;;;;;;;18.24;100.00;96134.91;1035124;28;20427;-76
2023/07/17 01:19:03;;;;;;;6.15;4.43;;;;;;;18.17;100.00;96126.59;1035147;28;20018;-73
2023/07/17 01:19:33;;;;;;;4.40;3.35;;;;;;;18.22;100.00;96137.09;1034849;28;20627;-74
2023/07/17 01:20:05;;;;;;;5.47;3.58;;;;;;;18.20;100.00;96137.38;1039131;28;20402;-75
2023/07/17 01:20:36;;;;;;;5.70;3.67;;;;;;;18.21;100.00;96132.84;1034672;28;20013;-75
2023/07/17 01:21:08;;;;;;;5.07;3.70;;;;;;;18.22;100.00;96134.44;1034572;28;20510;-74
2023/07/17 01:21:51;;;;;;;3.80;3.40;;;;;;;18.22;100.00;96134.44;1038790;28;20080;-75
2023/07/17 01:22:29;;;;;;;4.47;3.20;;;;;;;18.21;100.00;96130.19;1033097;28;20056;-74
2023/07/17 01:23:04;;;;;;;4.78;3.78;;;;;;;18.22;100.00;96137.09;1030687;28;20033;-73
2023/07/17 01:23:41;;;;;;;4.13;3.28;;;;;;;18.23;100.00;96136.78;1030802;28;20022;-76
2023/07/17 01:24:11;;;;;;;10.25;5.00;;;;;;;18.24;100.00;96130.41;1034986;28;20034;-75
2023/07/17 01:24:42;;;;;;;6.05;3.72;;;;;;;18.24;100.00;96132.25;1034847;28;20018;-74
2023/07/17 01:25:12;;;;;;;5.22;3.70;;;;;;;18.23;100.00;96130.69;1034672;28;20602;-75
2023/07/17 01:25:43;;;;;;;4.80;3.65;;;;;;;18.19;100.00;96125.19;1034848;28;20023;-74
2023/07/17 01:26:17;;;;;;;5.18;4.07;;;;;;;18.18;100.00;96128.16;1034711;28;20014;-75
2023/07/17 01:26:47;;;;;;;4.07;3.67;;;;;;;18.17;100.00;96129.25;1031273;28;20014;-75
2023/07/17 01:27:18;;;;;;;4.93;3.63;;;;;;;18.20;100.00;96133.94;1031284;28;20022;-72
2023/07/17 01:27:48;;;;;;;5.57;3.83;;;;;;;18.19;100.00;96129.72;1034821;28;20598;-74
2023/07/17 01:28:19;;;;;;;5.45;3.50;;;;;;;18.20;100.00;96131.28;1031057;28;20033;-75
2023/07/17 01:28:49;;;;;;;4.80;3.47;;;;;;;18.16;100.00;96119.72;1039081;28;20072;-78
2023/07/17 01:29:20;;;;;;;7.53;3.70;;;;;;;18.19;100.00;96137.69;1034807;28;20045;-74
2023/07/17 01:29:50;;;;;;;7.25;3.97;;;;;;;18.13;100.00;96126.41;1034771;28;20037;-74
2023/07/17 01:30:21;;;;;;;4.80;3.55;;;;;;;18.11;100.00;96129.38;1030847;28;20030;-74
2023/07/17 01:30:51;;;;;;;6.97;4.10;;;;;;;18.15;100.00;96134.88;1026698;28;20022;-74
2023/07/17 01:31:22;;;;;;;7.70;3.78;;;;;;;18.09;100.00;96131.53;1029907;28;20548;-74
2023/07/17 01:31:52;;;;;;;5.03;4.03;;;;;;;18.14;100.00;96139.41;1034699;28;20108;-73
2023/07/17 01:32:23;;;;;;;5.05;3.58;;;;;;;18.13;100.00;96143.13;1035096;28;20059;-75
2023/07/17 01:32:53;;;;;;;6.45;3.38;;;;;;;18.14;100.00;96149.22;1041273;28;20593;-76
2023/07/17 01:33:24;;;;;;;8.38;3.65;;;;;;;18.15;100.00;96156.13;1043310;28;20029;-74
2023/07/17 01:33:54;;;;;;;4.43;3.67;;;;;;;18.16;100.00;96156.91;1042925;28;20068;-75
2023/07/17 01:34:24;;;;;;;4.97;3.67;;;;;;;18.16;100.00;96154.25;1039880;28;20036;-74
2023/07/17 01:34:55;;;;;;;5.63;4.10;;;;;;;18.19;100.00;96158.97;1043115;28;20033;-75
2023/07/17 01:35:25;;;;;;;6.53;3.45;;;;;;;18.21;100.00;96167.38;1043200;28;20418;-73
2023/07/17 01:35:56;;;;;;;4.20;3.72;;;;;;;18.21;100.00;96167.38;1043001;28;20051;-73
2023/07/17 01:36:26;;;;;;;4.70;3.63;;;;;;;18.22;100.00;96171.63;1038809;28;20025;-73
2023/07/17 01:36:57;;;;;;;6.75;3.90;;;;;;;18.24;100.00;96172.91;1030848;28;20041;-74
2023/07/17 01:37:27;;;;;;;5.07;3.58;;;;;;;18.23;100.00;96184.59;1030834;28;20443;-76
2023/07/17 01:37:58;;;;;;;6.18;3.80;;;;;;;18.24;100.00;96185.38;1032754;28;20034;-74
2023/07/17 01:38:28;;;;;;;9.38;4.13;;;;;;;18.24;100.00;96191.50;1034781;28;20026;-74
2023/07/17 01:38:58;;;;;;;5.53;3.72;;;;;;;18.24;100.00;96190.69;1039002;28;20060;-74
2023/07/17 01:39:29;;;;;;;8.70;4.50;;;;;;;18.23;100.00;96194.44;1039512;28;20033;-74
2023/07/17 01:39:59;;;;;;;6.85;4.20;;;;;;;18.19;100.00;96193.50;1039025;28;20034;-74
2023/07/17 01:40:30;;;;;;;6.00;4.35;;;;;;;18.21;100.00;96207.22;1038817;28;20495;-74
2023/07/17 01:41:00;;;;;;;7.38;4.18;;;;;;;18.14;100.00;96200.50;1026483;28;20485;-74
2023/07/17 01:41:31;;;;;;;6.70;4.63;;;;;;;18.20;100.00;96208.34;1033482;28;20105;-73
2023/07/17 01:42:01;;;;;;;6.35;4.40;;;;;;;18.18;100.00;96215.84;1038795;28;20037;-75
2023/07/17 01:42:32;;;;;;;5.95;4.22;;;;;;;18.13;100.00;96214.06;1038717;28;20025;-75
2023/07/17 01:43:02;;;;;;;7.53;4.00;;;;;;;18.12;100.00;96220.47;1034674;28;20047;-74
2023/07/17 01:43:33;;;;;;;8.27;5.00;;;;;;;18.10;100.00;96218.09;1038259;28;20060;-75
2023/07/17 01:44:03;;;;;;;6.32;4.57;;;;;;;18.11;100.00;96219.69;1034656;28;20037;-75
2023/07/17 01:44:34;;;;;;;7.30;4.65;;;;;;;18.09;100.00;96208.56;1027302;28;20621;-74
2023/07/17 01:45:05;;;;;;;7.47;4.80;;;;;;;18.16;100.00;96220.66;1030863;28;20420;-75
2023/07/17 01:45:35;;;;;;;6.65;4.90;;;;;;;18.17;100.00;96222.22;1031083;28;20117;-76
2023/07/17 01:46:06;;;;;;;10.23;5.63;;;;;;;18.11;100.00;96213.59;1034724;28;20025;-75
2023/07/17 01:46:36;;;;;;;11.15;5.95;;;;;;;18.11;100.00;96219.69;1033938;28;20022;-74
2023/07/17 01:47:06;;;;;;;12.15;5.20;;;;;;;18.17;100.00;96224.88;1038925;28;20037;-75
2023/07/17 01:47:37;;;;;;;8.20;4.65;;;;;;;18.19;100.00;96220.81;1038768;28;20481;-74
2023/07/17 01:48:07;;;;;;;11.13;6.20;;;;;;;18.19;100.00;96225.34;1038758;28;20021;-77
2023/07/17 01:48:38;;;;;;;6.78;4.78;;;;;;;18.19;100.00;96220.03;1034861;28;20040;-74
2023/07/17 01:49:08;;;;;;;9.07;5.35;;;;;;;18.18;100.00;96221.16;1034992;28;20040;-75
2023/07/17 01:49:40;;;;;;;22.38;5.95;;;;;;;18.19;100.00;96220.81;1038772;28;20085;-75
2023/07/17 01:50:11;;;;;;;9.43;5.05;;;;;;;18.18;100.00;96226.44;1034983;28;20041;-74
2023/07/17 01:50:41;;;;;;;17.58;6.25;;;;;;;18.17;100.00;96222.22;1034637;28;20033;-77
2023/07/17 01:51:12;;;;;;;6.75;5.50;;;;;;;18.13;100.00;96217.50;1030418;28;20399;-74
2023/07/17 01:51:42;;;;;;;9.77;5.35;;;;;;;18.16;100.00;96220.66;1038020;28;20036;-74
2023/07/17 01:52:13;;;;;;;8.10;5.60;;;;;;;18.13;100.00;96222.81;1038993;28;20719;-74
2023/07/17 01:52:43;;;;;;;24.90;6.28;;;;;;;18.10;100.00;96204.03;1042864;28;20029;-73
2023/07/17 01:53:17;;;;;;;10.27;5.10;;;;;;;18.06;100.00;96201.19;1037703;28;20104;-74
2023/07/17 01:53:48;;;;;;;7.15;5.47;;;;;;;18.13;100.00;96198.13;1032642;28;20026;-74
2023/07/17 01:54:18;;;;;;;7.68;5.70;;;;;;;18.11;100.00;96197.66;1036742;28;20034;-73
2023/07/17 01:54:49;;;;;;;8.43;5.88;;;;;;;18.11;100.00;96193.13;1031050;28;20108;-74
2023/07/17 01:55:19;;;;;;;12.25;5.93;;;;;;;18.09;100.00;96186.53;1030889;28;20396;-74
2023/07/17 01:55:50;;;;;;;12.13;6.40;;;;;;;18.03;100.00;96174.44;1040421;28;20025;-75
2023/07/17 01:56:20;;;;;;;9.93;6.43;;;;;;;18.10;100.00;96186.22;1034867;28;20029;-74
2023/07/17 01:56:51;;;;;;;11.27;6.10;;;;;;;18.04;100.00;96184.78;1030766;28;20033;-75
2023/07/17 01:57:22;;;;;;;12.68;6.40;;;;;;;18.12;100.00;96196.56;1026934;28;20070;-74
2023/07/17 01:57:52;;;;;;;11.23;6.18;;;;;;;18.12;100.00;96199.22;1030845;28;20060;-73
2023/07/17 01:58:23;;;;;;;10.20;6.47;;;;;;;18.14;100.00;96202.34;1032920;28;20022;-74
2023/07/17 01:58:53;;;;;;;12.98;6.15;;;;;;;18.16;100.00;96207.38;1038578;28;20033;-74
2023/07/17 01:59:24;;;;;;;10.90;6.97;;;;;;;18.16;100.00;96207.38;1033126;28;20511;-74
2023/07/17 01:59:54;;;;;;;11.35;7.60;;;;;;;18.09;100.00;96200.59;1035281;28;20029;-74
2023/07/17 02:00:25;;;;;;;11.57;6.35;;;;;;;18.11;100.00;96202.97;1034791;28;20108;-74
2023/07/17 02:00:55;;;;;;;7.95;6.55;;;;;;;18.12;100.00;96193.91;1034553;28;20030;-74
2023/07/17 02:01:26;;;;;;;10.50;7.20;;;;;;;18.13;100.00;96195.47;1034038;28;20017;-75
2023/07/17 02:01:56;;;;;;;13.57;7.20;;;;;;;18.09;100.00;96189.97;1041778;28;20091;-74
2023/07/17 02:02:27;;;;;;;10.20;6.78;;;;;;;18.03;100.00;96179.75;1038990;28;20025;-74
2023/07/17 02:02:57;;;;;;;13.13;7.40;;;;;;;18.06;100.00;96179.94;1034579;28;20500;-74
2023/07/17 02:03:28;;;;;;;14.77;7.28;;;;;;;18.09;100.00;96189.19;1034634;28;20041;-73
2023/07/17 02:04:02;;;;;;;10.73;7.05;;;;;;;18.08;100.00;96183.09;1038819;28;20029;-74
2023/07/17 02:04:33;;;;;;;12.27;6.97;;;;;;;18.03;100.00;96167.25;1043499;28;20028;-75
2023/07/17 02:05:03;;;;;;;13.25;6.85;;;;;;;18.10;100.00;96175.59;1033390;28;20030;-73
2023/07/17 02:05:34;;;;;;;13.07;7.63;;;;;;;18.02;100.00;96164.91;1030627;28;20034;-75
2023/07/17 02:06:05;;;;;;;10.45;7.43;;;;;;;18.00;100.00;96157.22;1034364;28;20030;-74
2023/07/17 02:06:35;;;;;;;10.43;7.10;;;;;;;18.03;100.00;96164.59;1038873;28;20025;-74
2023/07/17 02:07:06;;;;;;;9.35;7.13;;;;;;;18.03;100.00;96167.25;1038269;28;20037;-75
2023/07/17 02:07:36;;;;;;;11.63;7.05;;;;;;;18.02;100.00;96165.69;1034623;28;20096;-75
2023/07/17 02:08:07;;;;;;;21.63;7.85;;;;;;;18.04;100.00;96170.69;1030711;28;20030;-74
2023/07/17 02:08:37;;;;;;;16.60;7.43;;;;;;;18.02;100.00;96170.22;1038635;28;20036;-75
2023/07/17 02:09:08;;;;;;;17.90;7.05;;;;;;;17.96;100.00;96161.56;1037147;28;20021;-74
2023/07/17 02:09:38;;;;;;;14.35;7.28;;;;;;;17.99;100.00;96168.94;1034690;28;20589;-75
2023/07/17 02:10:09;;;;;;;10.63;7.22;;;;;;;18.01;100.00;96166.78;1038845;28;20040;-74
2023/07/17 02:10:40;;;;;;;11.93;7.45;;;;;;;17.94;100.00;96161.09;1037029;28;20025;-75
2023/07/17 02:11:11;;;;;;;10.25;7.07;;;;;;;18.02;100.00;96176.31;1038021;28;20059;-72
2023/07/17 02:11:41;;;;;;;11.40;7.57;;;;;;;18.03;100.00;96179.75;1038795;28;20515;-73
2023/07/17 02:12:12;;;;;;;10.10;7.43;;;;;;;18.04;100.00;96181.31;1035082;28;20022;-73
2023/07/17 02:12:42;;;;;;;16.02;7.18;;;;;;;18.03;100.00;96185.84;1046888;28;20024;-75
2023/07/17 02:13:13;;;;;;;11.07;6.53;;;;;;;17.95;100.00;96177.81;1042772;28;20119;-75
2023/07/17 02:13:43;;;;;;;9.50;6.40;;;;;;;17.96;100.00;96185.47;1038961;28;20025;-74
2023/07/17 02:14:14;;;;;;;10.88;6.60;;;;;;;17.95;100.00;96183.91;1045598;28;20494;-74
2023/07/17 02:14:44;;;;;;;15.27;7.80;;;;;;;17.93;100.00;96180.75;1042974;28;20368;-74
2023/07/17 02:15:15;;;;;;;10.85;7.20;;;;;;;17.92;100.00;96178.41;1038704;28;20033;-73
2023/07/17 02:15:45;;;;;;;9.68;6.00;;;;;;;17.79;100.00;96178.13;1038523;28;20030;-75
2023/07/17 02:16:15;;;;;;;8.90;6.25;;;;;;;17.78;100.00;96175.78;1038802;28;20060;-74
2023/07/17 02:16:46;;;;;;;9.10;6.63;;;;;;;17.72;100.00;96168.97;1038901;28;20029;-74
2023/07/17 02:17:17;;;;;;;11.50;5.90;;;;;;;17.67;100.00;96172.50;1034652;28;20034;-75
2023/07/17 02:17:47;;;;;;;11.00;5.28;;;;;;;17.51;100.00;96172.03;1038619;28;20021;-75
2023/07/17 02:18:17;;;;;;;9.13;5.20;;;;;;;17.46;100.00;96177.44;1034747;28;20026;-74
2023/07/17 02:18:48;;;;;;;8.48;4.20;;;;;;;17.31;100.00;96175.09;1034883;28;20030;-74
2023/07/17 02:19:19;;;;;;;6.00;4.20;;;;;;;17.29;100.00;96183.31;1034603;28;20025;-76
2023/07/17 02:19:49;;;;;;;6.22;4.10;;;;;;;17.24;100.00;96175.47;1034825;28;20041;-75
2023/07/17 02:20:20;;;;;;;5.07;3.85;;;;;;;17.13;100.00;96180.16;1038929;28;20800;-74
2023/07/17 02:20:50;;;;;;;10.38;4.57;;;;;;;17.13;100.00;96185.47;1029296;28;20035;-75
2023/07/17 02:21:21;;;;;;;6.30;4.30;;;;;;;17.13;100.00;96184.69;1030009;28;20034;-75
2023/07/17 02:21:51;;;;;;;13.70;4.47;;;;;;;17.06;100.00;96189.59;1036690;28;20353;-72
2023/07/17 02:22:22;;;;;;;7.43;4.15;;;;;;;17.01;100.00;96182.53;1034393;28;20033;-72
2023/07/17 02:22:52;;;;;;;5.25;3.78;;;;;;;17.02;100.00;96183.31;1030597;28;20038;-74